Time;durP1;ratioP1;P1;durP2;ratioP2;P2;SDS_P1;SDS_P2;PMS_P1;PMS_P2;Temp;Humidity;BMP_temperature;BMP_pressure;BME280_temperature;BME280_humidity;BME280_pressure;Samples;Min_cycle;Max_cycle;Signal;HPM_P1;HPM_P2
2021/01/20 00:01:42;;;;;;;;;;;;;;;4.45;100.00;99716.81;5115575;28;19923;-74
2021/01/20 00:04:08;;;;;;;;;;;;;;;4.43;100.00;99712.53;5115585;28;19992;-74
2021/01/20 00:06:34;;;;;;;;;;;;;;;4.49;100.00;99717.44;5115416;28;19924;-74
2021/01/20 00:09:00;;;;;;;;;;;;;;;4.54;100.00;99720.66;5115590;28;19928;-75
2021/01/20 00:11:26;;;;;;;;;;;;;;;4.59;100.00;99723.03;5115391;28;20415;-74
2021/01/20 00:13:52;;;;;;;;;;;;;;;4.55;100.00;99717.00;5115210;28;19924;-74
2021/01/20 00:16:18;;;;;;;;;;;;;;;4.56;100.00;99723.22;5115243;28;19955;-74
2021/01/20 00:18:44;;;;;;;;;;;;;;;4.60;100.00;99724.75;5115236;27;20407;-74
2021/01/20 00:21:09;;;;;;;;;;;;;;;4.58;100.00;99715.94;5115349;28;19931;-75
2021/01/20 00:23:35;;;;;;;;;;;;;;;4.52;100.00;99718.09;5114941;28;20313;-74
2021/01/20 00:26:02;;;;;;;;;;;;;;;4.52;100.00;99723.47;5115041;28;19924;-75
2021/01/20 00:28:28;;;;;;;;;;;;;;;4.53;100.00;99732.41;5114850;28;19970;-74
2021/01/20 00:30:56;;;;;;;;;;;;;;;4.47;100.00;99727.44;5115203;28;19924;-74
2021/01/20 00:33:22;;;;;;;;;;;;;;;4.41;100.00;99720.69;5113885;28;19950;-75
2021/01/20 00:35:47;;;;;;;;;;;;;;;4.37;100.00;99713.81;5114737;28;20507;-74
2021/01/20 00:38:13;;;;;;;;;;;;;;;4.28;100.00;99718.00;5115002;28;19923;-74
2021/01/20 00:40:39;;;;;;;;;;;;;;;4.29;100.00;99730.47;5113533;28;19924;-74
2021/01/20 00:43:06;;;;;;;;;;;;;;;4.31;100.00;99723.16;5115014;28;19928;-74
2021/01/20 00:45:31;;;;;;;;;;;;;;;4.29;100.00;99725.13;5114856;28;19931;-75
2021/01/20 00:47:57;;;;;;;;;;;;;;;4.26;100.00;99729.84;5114273;28;19932;-74
2021/01/20 00:50:23;;;;;;;;;;;;;;;4.26;100.00;99727.16;5114330;28;19928;-74
2021/01/20 00:52:49;;;;;;;;;;;;;;;4.21;100.00;99718.56;5114591;28;19923;-74
2021/01/20 00:55:16;;;;;;;;;;;;;;;4.15;100.00;99715.31;5113473;28;19931;-75
2021/01/20 00:57:47;;;;;;;;;;;;;;;4.12;100.00;99728.97;5113259;28;19928;-74
2021/01/20 01:00:14;;;;;;;;;;;;;;;4.06;100.00;99724.03;5113330;28;19924;-75
2021/01/20 01:02:44;;;;;;;;;;;;;;;4.00;100.00;99727.16;5113254;28;20393;-75
2021/01/20 01:05:10;;;;;;;;;;;;;;;3.96;100.00;99731.88;5114310;28;19950;-74
2021/01/20 01:07:36;;;;;;;;;;;;;;;3.92;100.00;99732.22;5112850;28;19983;-75
2021/01/20 01:10:03;;;;;;;;;;;;;;;3.91;100.00;99738.53;5113183;28;20339;-75
2021/01/20 01:12:54;;;;;;;;;;;;;;;3.84;100.00;99744.31;5114427;28;20399;-75
2021/01/20 01:15:22;;;;;;;;;;;;;;;3.88;100.00;99754.88;5113060;28;19966;-75
2021/01/20 01:17:48;;;;;;;;;;;;;;;3.97;100.00;99754.25;5112645;28;20393;-74
2021/01/20 01:20:15;;;;;;;;;;;;;;;4.00;100.00;99745.97;5113213;28;20084;-74
2021/01/20 01:22:42;;;;;;;;;;;;;;;4.05;100.00;99746.50;5112915;28;20457;-74
2021/01/20 01:25:09;;;;;;;;;;;;;;;4.08;100.00;99740.91;5112593;28;19923;-74
2021/01/20 01:27:37;;;;;;;;;;;;;;;4.11;100.00;99740.69;5112587;28;19927;-74
2021/01/20 01:30:07;;;;;;;;;;;;;;;4.10;100.00;99736.31;5112819;28;19976;-74
2021/01/20 01:32:39;;;;;;;;;;;;;;;4.08;100.00;99729.31;5112937;28;19942;-75
2021/01/20 01:35:10;;;;;;;;;;;;;;;4.04;100.00;99728.66;5112674;28;19924;-74
2021/01/20 01:37:39;;;;;;;;;;;;;;;4.06;100.00;99737.47;5112358;28;19927;-75
2021/01/20 01:40:08;;;;;;;;;;;;;;;4.11;100.00;99738.00;5113777;28;19924;-74
2021/01/20 01:42:42;;;;;;;;;;;;;;;4.10;100.00;99739.00;5112267;28;20288;-75
2021/01/20 01:45:08;;;;;;;;;;;;;;;4.09;100.00;99739.06;5113906;28;19928;-74
2021/01/20 01:47:34;;;;;;;;;;;;;;;4.05;100.00;99741.13;5114626;28;19931;-74
2021/01/20 01:50:04;;;;;;;;;;;;;;;4.04;100.00;99752.84;5112751;28;19923;-73
2021/01/20 01:52:33;;;;;;;;;;;;;;;4.04;100.00;99750.16;5112709;28;19928;-73
2021/01/20 01:55:18;;;;;;;;;;;;;;;4.02;100.00;99742.22;5113547;28;20030;-74
2021/01/20 01:58:03;;;;;;;;;;;;;;;4.02;100.00;99746.69;5112156;28;19981;-73
2021/01/20 02:00:32;;;;;;;;;;;;;;;4.01;100.00;99745.00;5112348;28;19980;-73
2021/01/20 02:03:08;;;;;;;;;;;;;;;3.99;100.00;99745.09;5112166;28;19923;-73
2021/01/20 02:05:35;;;;;;;;;;;;;;;3.98;100.00;99755.94;5111999;28;19955;-74
2021/01/20 02:08:03;;;;;;;;;;;;;;;3.95;100.00;99764.22;5113298;28;19924;-73
2021/01/20 02:10:34;;;;;;;;;;;;;;;3.90;100.00;99760.97;5112133;28;19977;-73
2021/01/20 02:13:16;;;;;;;;;;;;;;;3.87;100.00;99761.19;5111941;28;19938;-73
2021/01/20 02:16:06;;;;;;;;;;;;;;;3.81;100.00;99749.91;5112526;28;19951;-73
2021/01/20 02:18:35;;;;;;;;;;;;;;;3.79;100.00;99756.34;5111981;28;19923;-73
2021/01/20 02:21:16;;;;;;;;;;;;;;;3.77;100.00;99755.59;5111831;28;20001;-73
2021/01/20 02:24:04;;;;;;;;;;;;;;;3.73;100.00;99754.94;5111430;28;19924;-74
2021/01/20 02:26:50;;;;;;;;;;;;;;;3.72;100.00;99755.91;5111529;28;19924;-73
2021/01/20 02:29:27;;;;;;;;;;;;;;;3.73;100.00;99757.63;5111713;28;19930;-74
2021/01/20 02:32:09;;;;;;;;;;;;;;;3.73;100.00;99754.94;5111607;28;19934;-73
2021/01/20 02:34:36;;;;;;;;;;;;;;;3.74;100.00;99754.00;5110902;28;19924;-73
2021/01/20 02:37:02;;;;;;;;;;;;;;;3.75;100.00;99765.59;5112466;28;19923;-73
2021/01/20 02:39:45;;;;;;;;;;;;;;;3.75;100.00;99762.91;5111360;28;19923;-73
2021/01/20 02:42:28;;;;;;;;;;;;;;;3.76;100.00;99760.09;5111493;28;19923;-74
2021/01/20 02:45:02;;;;;;;;;;;;;;;3.77;100.00;99764.50;5111370;28;20510;-73
2021/01/20 02:47:37;;;;;;;;;;;;;;;3.76;100.00;99764.63;5111228;28;19971;-73
2021/01/20 02:50:08;;;;;;;;;;;;;;;3.73;100.00;99757.63;5112605;28;19977;-73
2021/01/20 02:52:40;;;;;;;;;;;;;;;3.75;100.00;99763.75;5110976;28;19972;-73
2021/01/20 02:55:48;;;;;;;;;;;;;;;3.70;100.00;99765.88;5111929;28;19924;-73
2021/01/20 02:58:47;;;;;;;;;;;;;;;3.66;100.00;99765.25;5077505;28;19924;-73
2021/01/20 03:01:33;;;;;;;;;;;;;;;3.62;100.00;99770.91;5112378;28;19976;-73
2021/01/20 03:04:01;;;;;;;;;;;;;;;3.59;100.00;99771.97;5112196;28;20300;-73
2021/01/20 03:06:28;;;;;;;;;;;;;;;3.58;100.00;99774.78;5112157;28;19946;-73
2021/01/20 03:08:54;;;;;;;;;;;;;;;3.55;100.00;99764.25;5112258;28;19928;-73
2021/01/20 03:11:20;;;;;;;;;;;;;;;3.51;100.00;99766.28;5111871;28;19930;-73
2021/01/20 03:13:47;;;;;;;;;;;;;;;3.49;100.00;99777.09;5111924;28;19924;-73
2021/01/20 03:16:13;;;;;;;;;;;;;;;3.47;100.00;99776.34;5111866;28;19931;-73
2021/01/20 03:18:38;;;;;;;;;;;;;;;3.45;100.00;99780.97;5112231;28;20126;-73
2021/01/20 03:21:05;;;;;;;;;;;;;;;3.44;100.00;99781.06;5112063;28;19923;-73
2021/01/20 03:23:31;;;;;;;;;;;;;;;3.44;100.00;99781.91;5112030;28;20456;-73
2021/01/20 03:25:57;;;;;;;;;;;;;;;3.42;100.00;99775.81;5111808;28;19935;-73
2021/01/20 03:28:23;;;;;;;;;;;;;;;3.41;100.00;99765.16;5111718;28;20373;-73
2021/01/20 03:30:48;;;;;;;;;;;;;;;3.38;100.00;99762.69;5111935;28;19924;-73
2021/01/20 03:33:14;;;;;;;;;;;;;;;3.37;100.00;99766.31;5112044;28;19935;-73
2021/01/20 03:35:40;;;;;;;;;;;;;;;3.34;100.00;99762.03;5111656;28;19977;-73
2021/01/20 03:38:08;;;;;;;;;;;;;;;3.32;100.00;99761.28;5111745;28;19944;-73
2021/01/20 03:40:34;;;;;;;;;;;;;;;3.32;100.00;99758.59;5111856;28;19931;-73
2021/01/20 03:42:59;;;;;;;;;;;;;;;3.31;100.00;99767.59;5111793;28;19923;-73
2021/01/20 03:45:25;;;;;;;;;;;;;;;3.30;100.00;99766.75;5111775;28;19924;-73
2021/01/20 03:47:51;;;;;;;;;;;;;;;3.30;100.00;99765.88;5111286;28;19928;-73
2021/01/20 03:50:17;;;;;;;;;;;;;;;3.29;100.00;99758.81;5111810;28;19928;-73
2021/01/20 03:52:42;;;;;;;;;;;;;;;3.28;100.00;99755.25;5111751;28;19924;-73
2021/01/20 03:55:10;;;;;;;;;;;;;;;3.28;100.00;99752.56;5111660;28;20633;-73
2021/01/20 03:57:35;;;;;;;;;;;;;;;3.26;100.00;99738.41;5111368;28;19930;-73
2021/01/20 04:00:01;;;;;;;;;;;;;;;3.25;100.00;99746.56;5111468;28;19923;-73
2021/01/20 04:02:27;;;;;;;;;;;;;;;3.24;100.00;99736.78;5111642;28;20389;-73
2021/01/20 04:05:08;;;;;;;;;;;;;;;3.24;100.00;99734.09;5110264;28;19927;-73
2021/01/20 04:07:33;;;;;;;;;;;;;;;3.23;100.00;99737.75;5111258;28;20006;-73
2021/01/20 04:09:59;;;;;;;;;;;;;;;3.23;100.00;99737.75;5111458;28;19928;-73
2021/01/20 04:12:26;;;;;;;;;;;;;;;3.21;100.00;99735.16;5111439;28;20312;-73
2021/01/20 04:14:52;;;;;;;;;;;;;;;3.23;100.00;99745.78;5111492;28;19966;-73
2021/01/20 04:17:17;;;;;;;;;;;;;;;3.23;100.00;99743.13;5111288;28;19924;-73
2021/01/20 04:19:43;;;;;;;;;;;;;;;3.21;100.00;99732.50;5111292;28;19924;-73
2021/01/20 04:22:09;;;;;;;;;;;;;;;3.19;100.00;99723.66;5111567;28;19928;-73
2021/01/20 04:24:35;;;;;;;;;;;;;;;3.20;100.00;99724.56;5113594;28;19924;-73
2021/01/20 04:27:00;;;;;;;;;;;;;;;3.16;100.00;99735.47;5114716;28;19923;-73
2021/01/20 04:29:27;;;;;;;;;;;;;;;3.15;100.00;99733.75;5113830;28;19930;-73
2021/01/20 04:31:53;;;;;;;;;;;;;;;3.10;100.00;99725.16;5115202;28;20065;-73
2021/01/20 04:34:19;;;;;;;;;;;;;;;3.04;100.00;99714.81;5115077;28;19927;-73
2021/01/20 04:36:44;;;;;;;;;;;;;;;2.98;100.00;99717.91;5114827;28;19923;-73
2021/01/20 04:39:10;;;;;;;;;;;;;;;2.92;100.00;99707.59;5113798;28;20438;-73
2021/01/20 04:41:36;;;;;;;;;;;;;;;2.87;100.00;99707.88;5114826;28;19931;-73
2021/01/20 04:44:02;;;;;;;;;;;;;;;2.81;100.00;99703.78;5114674;28;19931;-73
2021/01/20 04:46:29;;;;;;;;;;;;;;;2.78;100.00;99704.00;5114761;28;19968;-73
2021/01/20 04:48:55;;;;;;;;;;;;;;;2.77;100.00;99699.59;5114871;28;19931;-74
2021/01/20 04:51:23;;;;;;;;;;;;;;;2.71;100.00;99704.50;5114889;28;19923;-73
2021/01/20 04:53:52;;;;;;;;;;;;;;;2.64;100.00;99704.03;5114785;28;20019;-80
2021/01/20 04:56:18;;;;;;;;;;;;;;;2.63;100.00;99689.78;5114504;28;19931;-73
2021/01/20 04:58:44;;;;;;;;;;;;;;;2.61;100.00;99689.00;5114647;28;20297;-75
2021/01/20 05:01:10;;;;;;;;;;;;;;;2.59;100.00;99690.06;5114328;28;19954;-73
2021/01/20 05:03:40;;;;;;;;;;;;;;;2.58;100.00;99680.28;5114555;28;19969;-73
2021/01/20 05:06:05;;;;;;;;;;;;;;;2.57;100.00;99675.91;5114361;28;20481;-73
2021/01/20 05:08:31;;;;;;;;;;;;;;;2.52;100.00;99681.56;5114582;28;19924;-73
2021/01/20 05:10:57;;;;;;;;;;;;;;;2.51;100.00;99675.34;5114299;28;20388;-73
2021/01/20 05:13:24;;;;;;;;;;;;;;;2.47;100.00;99671.16;5114396;28;19924;-73
2021/01/20 05:15:49;;;;;;;;;;;;;;;2.48;100.00;99678.22;5114031;28;19928;-73
2021/01/20 05:18:15;;;;;;;;;;;;;;;2.49;100.00;99673.72;5113900;28;20037;-73
2021/01/20 05:20:42;;;;;;;;;;;;;;;2.46;100.00;99674.78;5114323;28;19969;-74
2021/01/20 05:23:08;;;;;;;;;;;;;;;2.48;100.00;99680.88;5114155;28;20018;-74
2021/01/20 05:25:35;;;;;;;;;;;;;;;2.48;100.00;99675.53;5113869;28;19963;-73
2021/01/20 05:28:15;;;;;;;;;;;;;;;2.51;100.00;99680.72;5114160;28;20448;-74
2021/01/20 05:30:44;;;;;;;;;;;;;;;2.55;100.00;99675.16;5114254;28;19966;-74
2021/01/20 05:33:10;;;;;;;;;;;;;;;2.58;100.00;99675.81;5112645;28;19923;-73
2021/01/20 05:35:35;;;;;;;;;;;;;;;2.61;100.00;99680.13;5111434;28;19932;-74
2021/01/20 05:38:02;;;;;;;;;;;;;;;2.64;100.00;99682.59;5110424;28;19927;-74
2021/01/20 05:40:34;;;;;;;;;;;;;;;2.63;100.00;99673.69;5113317;28;19957;-73
2021/01/20 05:42:59;;;;;;;;;;;;;;;2.63;100.00;99670.16;5106772;28;20325;-74
2021/01/20 05:45:26;;;;;;;;;;;;;;;2.64;100.00;99670.03;5113665;27;19969;-74
2021/01/20 05:48:01;;;;;;;;;;;;;;;2.65;100.00;99665.56;5111197;28;19943;-74
2021/01/20 05:50:27;;;;;;;;;;;;;;;2.66;100.00;99669.97;5103748;28;20015;-74
2021/01/20 05:53:07;;;;;;;;;;;;;;;2.67;100.00;99671.66;5100761;28;20011;-74
2021/01/20 05:55:33;;;;;;;;;;;;;;;2.65;100.00;99674.44;5103707;27;19959;-74
2021/01/20 05:57:59;;;;;;;;;;;;;;;2.64;100.00;99670.03;5097513;28;19935;-73
2021/01/20 06:00:25;;;;;;;;;;;;;;;2.64;100.00;99675.41;5113429;28;19924;-74
2021/01/20 06:02:52;;;;;;;;;;;;;;;2.65;100.00;99673.59;5110146;28;19939;-74
2021/01/20 06:05:19;;;;;;;;;;;;;;;2.65;100.00;99687.00;5092855;28;20010;-74
2021/01/20 06:07:45;;;;;;;;;;;;;;;2.62;100.00;99684.50;5093718;28;20039;-72
2021/01/20 06:10:12;;;;;;;;;;;;;;;2.56;100.00;99685.75;5104002;28;19924;-71
2021/01/20 06:12:37;;;;;;;;;;;;;;;2.46;100.00;99680.16;5093603;28;20015;-73
2021/01/20 06:15:04;;;;;;;;;;;;;;;2.50;100.00;99687.03;5092820;28;20309;-72
2021/01/20 06:17:30;;;;;;;;;;;;;;;2.47;100.00;99676.50;5112724;28;20006;-73
2021/01/20 06:19:58;;;;;;;;;;;;;;;2.43;100.00;99679.47;5112991;28;20014;-74
2021/01/20 06:22:26;;;;;;;;;;;;;;;2.35;100.00;99677.28;5091998;28;19974;-73
2021/01/20 06:24:55;;;;;;;;;;;;;;;2.28;100.00;99675.97;5102430;28;19931;-74
2021/01/20 06:27:24;;;;;;;;;;;;;;;2.18;100.00;99670.34;5103999;28;19947;-74
2021/01/20 06:29:53;;;;;;;;;;;;;;;2.07;100.00;99665.66;5112011;28;19951;-74
2021/01/20 06:32:22;;;;;;;;;;;;;;;1.99;100.00;99675.97;5112577;28;20030;-74
2021/01/20 06:34:51;;;;;;;;;;;;;;;2.00;100.00;99677.69;5101317;28;20027;-74
2021/01/20 06:37:32;;;;;;;;;;;;;;;2.04;100.00;99673.84;5092106;28;19924;-74
2021/01/20 06:39:58;;;;;;;;;;;;;;;2.10;100.00;99670.81;5106832;28;20136;-73
2021/01/20 06:42:30;;;;;;;;;;;;;;;2.16;100.00;99682.94;5095291;28;20328;-74
2021/01/20 06:45:12;;;;;;;;;;;;;;;2.23;100.00;99678.94;5101245;28;19951;-73
2021/01/20 06:47:53;;;;;;;;;;;;;;;2.23;100.00;99678.06;5091298;28;20321;-73
2021/01/20 06:50:18;;;;;;;;;;;;;;;2.30;100.00;99674.06;5095413;28;19924;-73
2021/01/20 06:52:59;;;;;;;;;;;;;;;2.34;100.00;99664.88;5093024;27;20278;-73
2021/01/20 06:55:34;;;;;;;;;;;;;;;2.32;100.00;99661.41;5092819;28;19924;-73
2021/01/20 06:58:20;;;;;;;;;;;;;;;2.30;100.00;99661.50;5091591;28;20607;-73
2021/01/20 07:01:07;;;;;;;;;;;;;;;2.26;100.00;99660.00;5091423;28;19970;-73
2021/01/20 07:03:38;;;;;;;;;;;;;;;2.24;100.00;99664.56;5088144;28;20011;-73
2021/01/20 07:06:04;;;;;;;;;;;;;;;2.19;100.00;99661.31;5090614;28;19923;-73
2021/01/20 07:08:51;;;;;;;;;;;;;;;2.13;100.00;99659.91;5094639;28;20018;-74
2021/01/20 07:11:18;;;;;;;;;;;;;;;2.13;100.00;99664.41;5105026;28;20011;-74
2021/01/20 07:13:44;;;;;;;;;;;;;;;2.15;100.00;99660.69;5111859;28;20007;-73
2021/01/20 07:16:11;;;;;;;;;;;;;;;2.12;100.00;99671.56;5111541;28;19954;-74
2021/01/20 07:18:39;;;;;;;;;;;;;;;2.12;100.00;99670.72;5110150;28;19963;-73
2021/01/20 07:21:05;;;;;;;;;;;;;;;2.17;100.00;99665.94;5110178;28;19927;-73
2021/01/20 07:23:32;;;;;;;;;;;;;;;2.20;100.00;99665.72;5111809;28;19949;-74
2021/01/20 07:25:58;;;;;;;;;;;;;;;2.26;100.00;99670.69;5099644;28;20681;-74
2021/01/20 07:28:24;;;;;;;;;;;;;;;2.34;100.00;99662.19;5091290;28;19928;-74
2021/01/20 07:31:02;;;;;;;;;;;;;;;2.42;100.00;99667.91;5101805;28;19951;-73
2021/01/20 07:33:28;;;;;;;;;;;;;;;2.46;100.00;99663.19;5111659;28;19931;-74
2021/01/20 07:35:54;;;;;;;;;;;;;;;2.46;100.00;99658.72;5110943;28;20014;-74
2021/01/20 07:38:20;;;;;;;;;;;;;;;2.48;100.00;99669.31;5107315;28;19927;-74
2021/01/20 07:40:46;;;;;;;;;;;;;;;2.50;100.00;99667.41;5106974;28;19923;-74
2021/01/20 07:43:21;;;;;;;;;;;;;;;2.50;100.00;99665.59;5108658;28;19923;-73
2021/01/20 07:45:48;;;;;;;;;;;;;;;2.51;100.00;99672.66;5110181;28;19973;-74
2021/01/20 07:48:14;;;;;;;;;;;;;;;2.53;100.00;99669.88;5104895;28;20019;-75
2021/01/20 07:50:44;;;;;;;;;;;;;;;2.50;100.00;99667.41;5110560;28;20025;-75
2021/01/20 07:53:11;;;;;;;;;;;;;;;2.48;100.00;99672.84;5111621;28;20019;-73
2021/01/20 07:55:37;;;;;;;;;;;;;;;2.46;100.00;99672.09;5108599;28;20377;-74
2021/01/20 07:58:03;;;;;;;;;;;;;;;2.50;100.00;99676.31;5106543;28;19924;-73
2021/01/20 08:00:29;;;;;;;;;;;;;;;2.54;100.00;99665.38;5100329;28;20019;-74
2021/01/20 08:02:56;;;;;;;;;;;;;;;2.56;100.00;99661.66;5114877;27;20363;-74
2021/01/20 08:05:31;;;;;;;;;;;;;;;2.62;100.00;99668.41;5099787;28;19984;-74
2021/01/20 08:08:03;;;;;;;;;;;;;;;2.75;100.00;99674.69;5114872;28;20402;-74
2021/01/20 08:10:29;;;;;;;;;;;;;;;2.90;100.00;99661.25;5096555;28;19970;-74
2021/01/20 08:12:55;;;;;;;;;;;;;;;3.05;100.00;99662.03;5115355;28;19924;-74
2021/01/20 08:15:21;;;;;;;;;;;;;;;3.14;100.00;99667.66;5106271;28;19959;-73
2021/01/20 08:17:47;;;;;;;;;;;;;;;3.29;100.00;99659.56;5096555;28;19962;-74
2021/01/20 08:20:13;;;;;;;;;;;;;;;3.42;100.00;99656.88;5114837;28;20381;-73
2021/01/20 08:22:44;;;;;;;;;;;;;;;3.46;100.00;99647.66;5098883;28;19970;-73
2021/01/20 08:25:10;;;;;;;;;;;;;;;3.63;100.00;99643.81;5107233;28;19969;-75
2021/01/20 08:27:37;;;;;;;;;;;;;;;3.71;100.00;99654.03;5114882;28;19923;-74
2021/01/20 08:30:05;;;;;;;;;;;;;;;3.76;100.00;99647.34;5108537;28;19931;-75
2021/01/20 08:32:31;;;;;;;;;;;;;;;3.71;100.00;99643.28;5098402;28;19939;-75
2021/01/20 08:34:58;;;;;;;;;;;;;;;3.65;100.00;99648.09;5094291;28;19924;-74
2021/01/20 08:37:33;;;;;;;;;;;;;;;3.67;100.00;99648.88;5094276;28;20086;-74
2021/01/20 08:40:00;;;;;;;;;;;;;;;3.84;100.00;99647.66;5105914;28;19967;-76
2021/01/20 08:42:28;;;;;;;;;;;;;;;3.89;100.00;99641.13;5101249;28;20385;-75
2021/01/20 08:45:07;;;;;;;;;;;;;;;3.87;100.00;99651.13;5114545;28;19931;-74
2021/01/20 08:47:34;;;;;;;;;;;;;;;3.84;100.00;99649.50;5114432;28;19981;-73
2021/01/20 08:50:00;;;;;;;;;;;;;;;3.78;100.00;99636.50;5113700;28;20151;-74
2021/01/20 08:52:40;;;;;;;;;;;;;;;3.76;100.00;99639.31;5113385;28;19981;-75
2021/01/20 08:55:08;;;;;;;;;;;;;;;3.73;100.00;99631.47;5111592;28;20357;-74
2021/01/20 08:57:33;;;;;;;;;;;;;;;3.75;100.00;99629.53;5093727;28;19970;-74
2021/01/20 08:59:59;;;;;;;;;;;;;;;3.74;100.00;99629.63;5102495;28;19928;-75
2021/01/20 09:02:26;;;;;;;;;;;;;;;3.72;100.00;99631.59;5101107;28;19931;-75
2021/01/20 09:04:52;;;;;;;;;;;;;;;3.80;100.00;99632.75;5113831;28;19930;-74
2021/01/20 09:07:18;;;;;;;;;;;;;;;3.95;100.00;99630.78;5109330;28;19923;-73
2021/01/20 09:09:44;;;;;;;;;;;;;;;4.04;100.00;99637.34;5112525;28;20285;-74
2021/01/20 09:12:11;;;;;;;;;;;;;;;4.04;100.00;99634.66;5113040;28;19936;-74
2021/01/20 09:14:38;;;;;;;;;;;;;;;4.05;100.00;99635.50;5109244;28;20011;-75
2021/01/20 09:17:05;;;;;;;;;;;;;;;4.01;100.00;99637.59;5100888;28;20294;-76
2021/01/20 09:19:31;;;;;;;;;;;;;;;4.00;100.00;99639.38;5106002;28;19928;-76
2021/01/20 09:21:56;;;;;;;;;;;;;;;4.00;100.00;99635.84;5105899;28;19931;-76
2021/01/20 09:24:22;;;;;;;;;;;;;;;4.04;100.00;99629.28;5107827;28;20385;-76
2021/01/20 09:26:48;;;;;;;;;;;;;;;4.04;100.00;99626.59;5106321;28;20011;-77
2021/01/20 09:29:14;;;;;;;;;;;;;;;4.04;100.00;99629.28;5096500;28;19924;-77
2021/01/20 09:31:40;;;;;;;;;;;;;;;4.01;100.00;99627.69;5105807;28;20418;-76
2021/01/20 09:34:07;;;;;;;;;;;;;;;4.04;100.00;99625.75;5101946;28;20368;-75
2021/01/20 09:36:33;;;;;;;;;;;;;;;4.06;100.00;99630.03;5113259;28;20467;-75
2021/01/20 09:38:59;;;;;;;;;;;;;;;4.07;100.00;99628.22;5103903;28;19928;-76
2021/01/20 09:41:25;;;;;;;;;;;;;;;4.14;100.00;99630.38;5102848;28;19967;-76
2021/01/20 09:43:51;;;;;;;;;;;;;;;4.19;100.00;99624.66;5098603;28;19923;-76
2021/01/20 09:46:18;;;;;;;;;;;;;;;4.37;100.00;99625.16;5113766;27;20274;-76
2021/01/20 09:48:44;;;;;;;;;;;;;;;4.56;100.00;99613.91;5101999;28;20019;-75
2021/01/20 09:51:10;;;;;;;;;;;;;;;4.81;100.00;99614.75;5105258;28;19992;-76
2021/01/20 09:53:35;;;;;;;;;;;;;;;5.01;100.00;99605.19;5101677;28;20393;-76
2021/01/20 09:56:01;;;;;;;;;;;;;;;5.16;100.00;99608.56;5112757;28;19928;-76
2021/01/20 09:58:27;;;;;;;;;;;;;;;5.31;100.00;99603.81;5105530;28;20398;-75
2021/01/20 10:00:53;;;;;;;;;;;;;;;5.52;100.00;99601.31;5093871;28;19939;-75
2021/01/20 10:03:20;;;;;;;;;;;;;;;5.71;100.00;99592.63;5103009;28;19932;-75
2021/01/20 10:05:48;;;;;;;;;;;;;;;5.70;100.00;99590.91;5099571;28;19977;-76
2021/01/20 10:08:13;;;;;;;;;;;;;;;5.83;100.00;99594.34;5096044;28;19947;-74
2021/01/20 10:10:39;;;;;;;;;;;;;;;5.86;100.00;99596.78;5104496;28;19931;-75
2021/01/20 10:13:05;;;;;;;;;;;;;;;6.00;100.00;99601.13;5111721;28;19928;-74
2021/01/20 10:15:31;;;;;;;;;;;;;;;5.91;100.00;99595.59;5096317;28;19928;-74
2021/01/20 10:17:57;;;;;;;;;;;;;;;5.70;100.00;99580.13;5105210;28;19932;-75
2021/01/20 10:20:23;;;;;;;;;;;;;;;5.64;100.00;99580.66;5092599;28;20422;-75
2021/01/20 10:22:49;;;;;;;;;;;;;;;5.51;100.00;99580.75;5104760;28;20015;-75
2021/01/20 10:25:15;;;;;;;;;;;;;;;5.61;100.00;99583.56;5107762;28;19947;-74
2021/01/20 10:27:41;;;;;;;;;;;;;;;5.72;100.00;99575.50;5111075;28;20405;-76
2021/01/20 10:30:08;;;;;;;;;;;;;;;5.97;100.00;99578.91;5106396;28;19928;-76
2021/01/20 10:32:33;;;;;;;;;;;;;;;6.26;100.00;99576.59;5112514;28;19963;-76
2021/01/20 10:34:59;;;;;;;;;;;;;;;6.43;100.00;99569.81;5105940;28;19928;-76
2021/01/20 10:37:26;;;;;;;;;;;;;;;6.43;100.00;99561.75;5112316;28;20407;-75
2021/01/20 10:39:52;;;;;;;;;;;;;;;6.32;100.00;99559.94;5111305;28;20057;-76
2021/01/20 10:42:17;;;;;;;;;;;;;;;6.12;100.00;99568.78;5111745;28;19923;-76
2021/01/20 10:44:47;;;;;;;;;;;;;;;5.95;100.00;99557.50;5108542;28;19993;-75
2021/01/20 10:47:13;;;;;;;;;;;;;;;5.84;100.00;99552.97;5111382;28;19938;-73
2021/01/20 10:49:38;;;;;;;;;;;;;;;5.80;100.00;99548.81;5112248;28;19924;-73
2021/01/20 10:52:04;;;;;;;;;;;;;;;5.78;100.00;99545.38;5111820;28;19928;-74
2021/01/20 10:54:31;;;;;;;;;;;;;;;5.74;100.00;99549.28;5091735;28;20305;-74
2021/01/20 10:56:58;;;;;;;;;;;;;;;5.70;100.00;99561.28;5091356;28;20022;-74
2021/01/20 10:59:23;;;;;;;;;;;;;;;5.75;100.00;99556.41;5096244;28;19931;-75
2021/01/20 11:01:49;;;;;;;;;;;;;;;5.77;100.00;99565.22;5110637;28;19924;-76
2021/01/20 11:04:16;;;;;;;;;;;;;;;5.77;100.00;99562.53;5111714;28;19924;-76
2021/01/20 11:06:41;;;;;;;;;;;;;;;5.75;100.00;99559.09;5111747;28;20022;-75
2021/01/20 11:09:07;;;;;;;;;;;;;;;5.77;100.00;99561.66;5102516;28;19924;-75
2021/01/20 11:11:34;;;;;;;;;;;;;;;5.77;100.00;99556.28;5111932;28;20308;-75
2021/01/20 11:14:00;;;;;;;;;;;;;;;5.82;100.00;99554.91;5110721;28;20084;-75
2021/01/20 11:16:26;;;;;;;;;;;;;;;5.90;100.00;99548.94;5111547;28;20361;-74
2021/01/20 11:18:52;;;;;;;;;;;;;;;5.93;100.00;99550.50;5110863;28;19989;-75
2021/01/20 11:21:18;;;;;;;;;;;;;;;5.99;100.00;99550.06;5111773;28;20290;-74
2021/01/20 11:23:45;;;;;;;;;;;;;;;6.01;100.00;99553.47;5104640;28;19924;-74
2021/01/20 11:26:10;;;;;;;;;;;;;;;6.02;100.00;99552.50;5091119;28;19977;-74
2021/01/20 11:28:37;;;;;;;;;;;;;;;6.05;100.00;99549.56;5104913;28;19924;-75
2021/01/20 11:31:03;;;;;;;;;;;;;;;6.00;100.00;99544.53;5109830;28;19963;-77
2021/01/20 11:33:29;;;;;;;;;;;;;;;5.98;100.00;99549.19;5106897;28;19996;-74
2021/01/20 11:35:55;;;;;;;;;;;;;;;5.98;100.00;99545.66;5106136;28;19924;-74
2021/01/20 11:38:21;;;;;;;;;;;;;;;5.99;100.00;99547.38;5104204;28;19928;-77
2021/01/20 11:40:46;;;;;;;;;;;;;;;6.00;100.00;99547.25;5098613;28;20328;-76
2021/01/20 11:43:13;;;;;;;;;;;;;;;6.06;100.00;99536.94;5095655;28;19931;-76
2021/01/20 11:45:39;;;;;;;;;;;;;;;6.10;100.00;99520.41;5107566;28;20492;-74
2021/01/20 11:48:06;;;;;;;;;;;;;;;6.22;100.00;99526.63;5097582;28;20415;-75
2021/01/20 11:50:32;;;;;;;;;;;;;;;6.32;100.00;99521.31;5111721;28;19924;-76
2021/01/20 11:52:58;;;;;;;;;;;;;;;6.41;100.00;99520.56;5109911;28;20326;-76
2021/01/20 11:55:24;;;;;;;;;;;;;;;6.43;100.00;99517.75;5101232;28;20368;-75
2021/01/20 11:57:50;;;;;;;;;;;;;;;6.45;100.00;99513.94;5111193;28;20012;-76
2021/01/20 12:00:16;;;;;;;;;;;;;;;6.50;100.00;99505.47;5091256;28;19967;-76
2021/01/20 12:02:43;;;;;;;;;;;;;;;6.50;100.00;99506.31;5091051;28;19931;-76
2021/01/20 12:05:11;;;;;;;;;;;;;;;6.50;100.00;99498.22;5107669;28;20327;-76
2021/01/20 12:07:37;;;;;;;;;;;;;;;6.55;100.00;99489.78;5105626;28;19924;-76
2021/01/20 12:10:04;;;;;;;;;;;;;;;6.58;100.00;99480.56;5090614;28;20436;-77
2021/01/20 12:12:29;;;;;;;;;;;;;;;6.60;100.00;99489.38;5094649;28;19971;-75
2021/01/20 12:14:55;;;;;;;;;;;;;;;6.60;100.00;99483.97;5110922;28;20572;-75
2021/01/20 12:17:21;;;;;;;;;;;;;;;6.61;100.00;99483.00;5110224;28;19924;-77
2021/01/20 12:19:47;;;;;;;;;;;;;;;6.64;100.00;99488.13;5100595;28;20290;-75
2021/01/20 12:22:13;;;;;;;;;;;;;;;6.64;100.00;99486.28;5103109;28;21503;-78
2021/01/20 12:24:39;;;;;;;;;;;;;;;6.68;100.00;99484.19;5111237;28;19930;-76
2021/01/20 12:27:05;;;;;;;;;;;;;;;6.68;100.00;99479.66;5097554;28;20352;-76
2021/01/20 12:29:31;;;;;;;;;;;;;;;6.67;100.00;99472.53;5110924;28;19971;-76
2021/01/20 12:31:57;;;;;;;;;;;;;;;6.67;100.00;99474.41;5093844;28;19931;-77
2021/01/20 12:34:22;;;;;;;;;;;;;;;6.65;100.00;99477.19;5090928;28;20431;-76
2021/01/20 12:36:49;;;;;;;;;;;;;;;6.65;100.00;99469.09;5110645;28;19973;-74
2021/01/20 12:39:15;;;;;;;;;;;;;;;6.63;100.00;99471.09;5108696;28;19981;-75
2021/01/20 12:41:42;;;;;;;;;;;;;;;6.65;100.00;99461.03;5111026;28;20022;-75
2021/01/20 12:44:08;;;;;;;;;;;;;;;6.68;100.00;99466.16;5101437;28;19924;-75
2021/01/20 12:46:34;;;;;;;;;;;;;;;6.70;100.00;99463.34;5100617;28;20011;-76
2021/01/20 12:48:59;;;;;;;;;;;;;;;6.72;100.00;99465.91;5105244;28;20270;-76
2021/01/20 12:51:25;;;;;;;;;;;;;;;6.76;100.00;99472.75;5114539;28;19923;-76
2021/01/20 12:53:52;;;;;;;;;;;;;;;6.77;100.00;99467.22;5111828;28;20408;-76